sensor_id;sensor_type;location;lat;lon;timestamp;temperature;humidity
7516;DHT22;3799;47.184;8.538;2022-09-27T00:01:47;12.50;99.90
7516;DHT22;3799;47.184;8.538;2022-09-27T00:04:33;12.60;99.90
7516;DHT22;3799;47.184;8.538;2022-09-27T00:07:18;12.50;99.90
7516;DHT22;3799;47.184;8.538;2022-09-27T00:10:04;12.50;99.90
7516;DHT22;3799;47.184;8.538;2022-09-27T00:12:53;12.50;99.90
7516;DHT22;3799;47.184;8.538;2022-09-27T00:15:39;12.60;99.90
7516;DHT22;3799;47.184;8.538;2022-09-27T00:18:25;12.30;99.90
7516;DHT22;3799;47.184;8.538;2022-09-27T00:21:11;12.50;99.90
7516;DHT22;3799;47.184;8.538;2022-09-27T00:23:57;12.40;99.90
7516;DHT22;3799;47.184;8.538;2022-09-27T00:26:43;12.50;99.90
7516;DHT22;3799;47.184;8.538;2022-09-27T00:29:29;12.30;99.90
7516;DHT22;3799;47.184;8.538;2022-09-27T00:32:15;12.20;99.90
7516;DHT22;3799;47.184;8.538;2022-09-27T00:35:01;12.40;99.90
7516;DHT22;3799;47.184;8.538;2022-09-27T00:37:47;12.30;99.90
7516;DHT22;3799;47.184;8.538;2022-09-27T00:40:33;12.30;99.90
7516;DHT22;3799;47.184;8.538;2022-09-27T00:43:20;12.10;99.90
7516;DHT22;3799;47.184;8.538;2022-09-27T00:46:06;12.10;99.90
7516;DHT22;3799;47.184;8.538;2022-09-27T00:49:16;12.10;99.90
7516;DHT22;3799;47.184;8.538;2022-09-27T00:52:00;12.20;99.90
7516;DHT22;3799;47.184;8.538;2022-09-27T00:54:47;12.20;99.90
7516;DHT22;3799;47.184;8.538;2022-09-27T00:57:35;12.20;99.90
7516;DHT22;3799;47.184;8.538;2022-09-27T01:00:21;12.20;99.90
7516;DHT22;3799;47.184;8.538;2022-09-27T01:03:07;12.20;99.90
7516;DHT22;3799;47.184;8.538;2022-09-27T01:05:53;12.20;99.90
7516;DHT22;3799;47.184;8.538;2022-09-27T01:08:39;12.30;99.90
7516;DHT22;3799;47.184;8.538;2022-09-27T01:14:37;12.10;99.90
7516;DHT22;3799;47.184;8.538;2022-09-27T01:34:54;12.10;99.90
7516;DHT22;3799;47.184;8.538;2022-09-27T01:37:59;12.10;99.90
7516;DHT22;3799;47.184;8.538;2022-09-27T01:40:56;11.90;99.90
7516;DHT22;3799;47.184;8.538;2022-09-27T01:46:55;11.80;99.90
7516;DHT22;3799;47.184;8.538;2022-09-27T01:49:48;11.80;99.90
7516;DHT22;3799;47.184;8.538;2022-09-27T01:52:38;11.80;99.90
7516;DHT22;3799;47.184;8.538;2022-09-27T01:55:27;11.90;99.90
7516;DHT22;3799;47.184;8.538;2022-09-27T01:58:19;12.10;99.90
7516;DHT22;3799;47.184;8.538;2022-09-27T02:01:08;12.10;99.90
7516;DHT22;3799;47.184;8.538;2022-09-27T02:03:55;12.20;99.90
7516;DHT22;3799;47.184;8.538;2022-09-27T02:06:44;11.80;99.90
7516;DHT22;3799;47.184;8.538;2022-09-27T02:12:25;12.20;99.90
7516;DHT22;3799;47.184;8.538;2022-09-27T02:15:13;12.00;99.90
7516;DHT22;3799;47.184;8.538;2022-09-27T02:18:00;12.20;99.90
7516;DHT22;3799;47.184;8.538;2022-09-27T02:20:50;12.10;99.90
7516;DHT22;3799;47.184;8.538;2022-09-27T02:23:40;12.20;99.90
7516;DHT22;3799;47.184;8.538;2022-09-27T02:26:34;11.90;99.90
7516;DHT22;3799;47.184;8.538;2022-09-27T02:29:28;12.00;99.90
7516;DHT22;3799;47.184;8.538;2022-09-27T02:32:16;11.70;99.90
7516;DHT22;3799;47.184;8.538;2022-09-27T02:35:07;11.80;99.90
7516;DHT22;3799;47.184;8.538;2022-09-27T02:37:54;11.90;99.90
7516;DHT22;3799;47.184;8.538;2022-09-27T02:40:44;12.10;99.90
7516;DHT22;3799;47.184;8.538;2022-09-27T02:43:31;12.00;99.90
7516;DHT22;3799;47.184;8.538;2022-09-27T02:57:42;11.80;99.90
7516;DHT22;3799;47.184;8.538;2022-09-27T03:03:39;11.60;99.90
7516;DHT22;3799;47.184;8.538;2022-09-27T03:06:27;11.70;99.90
7516;DHT22;3799;47.184;8.538;2022-09-27T03:09:23;11.40;99.90
7516;DHT22;3799;47.184;8.538;2022-09-27T03:12:09;11.60;99.90
7516;DHT22;3799;47.184;8.538;2022-09-27T03:14:56;11.40;99.90
7516;DHT22;3799;47.184;8.538;2022-09-27T03:17:42;11.20;99.90
7516;DHT22;3799;47.184;8.538;2022-09-27T03:20:28;11.00;99.90
7516;DHT22;3799;47.184;8.538;2022-09-27T03:23:14;11.00;99.90
7516;DHT22;3799;47.184;8.538;2022-09-27T03:25:59;10.90;99.90
7516;DHT22;3799;47.184;8.538;2022-09-27T03:28:45;11.10;99.90
7516;DHT22;3799;47.184;8.538;2022-09-27T03:31:31;11.00;99.90
7516;DHT22;3799;47.184;8.538;2022-09-27T03:34:17;10.60;99.90
7516;DHT22;3799;47.184;8.538;2022-09-27T03:37:03;10.60;99.90
7516;DHT22;3799;47.184;8.538;2022-09-27T03:39:49;10.50;99.90
7516;DHT22;3799;47.184;8.538;2022-09-27T03:42:35;10.60;99.90
7516;DHT22;3799;47.184;8.538;2022-09-27T03:45:21;10.40;99.90
7516;DHT22;3799;47.184;8.538;2022-09-27T03:48:07;10.40;99.90
7516;DHT22;3799;47.184;8.538;2022-09-27T03:50:52;10.60;99.90
7516;DHT22;3799;47.184;8.538;2022-09-27T03:53:38;10.40;99.90
7516;DHT22;3799;47.184;8.538;2022-09-27T03:56:24;10.40;99.90
7516;DHT22;3799;47.184;8.538;2022-09-27T03:59:10;10.30;99.90
7516;DHT22;3799;47.184;8.538;2022-09-27T04:01:56;10.50;99.90
7516;DHT22;3799;47.184;8.538;2022-09-27T04:04:41;10.40;99.90
7516;DHT22;3799;47.184;8.538;2022-09-27T04:07:27;10.50;99.90
7516;DHT22;3799;47.184;8.538;2022-09-27T04:10:14;10.10;99.90
7516;DHT22;3799;47.184;8.538;2022-09-27T04:13:00;10.50;99.90
7516;DHT22;3799;47.184;8.538;2022-09-27T04:15:46;10.50;99.90
7516;DHT22;3799;47.184;8.538;2022-09-27T04:18:32;10.30;99.90
7516;DHT22;3799;47.184;8.538;2022-09-27T04:21:18;10.50;99.90
7516;DHT22;3799;47.184;8.538;2022-09-27T04:24:05;10.30;99.90
7516;DHT22;3799;47.184;8.538;2022-09-27T04:26:51;10.20;99.90
7516;DHT22;3799;47.184;8.538;2022-09-27T04:29:37;10.40;99.90
7516;DHT22;3799;47.184;8.538;2022-09-27T04:32:27;10.20;99.90
7516;DHT22;3799;47.184;8.538;2022-09-27T04:35:13;10.40;99.90
7516;DHT22;3799;47.184;8.538;2022-09-27T04:38:17;10.40;99.90
7516;DHT22;3799;47.184;8.538;2022-09-27T04:41:07;10.20;99.90
7516;DHT22;3799;47.184;8.538;2022-09-27T04:43:56;10.40;99.90
7516;DHT22;3799;47.184;8.538;2022-09-27T04:46:42;10.50;99.90
7516;DHT22;3799;47.184;8.538;2022-09-27T04:49:28;10.60;99.90
7516;DHT22;3799;47.184;8.538;2022-09-27T04:52:14;10.60;99.90
7516;DHT22;3799;47.184;8.538;2022-09-27T04:55:00;10.50;99.90
7516;DHT22;3799;47.184;8.538;2022-09-27T04:57:46;10.80;99.90
7516;DHT22;3799;47.184;8.538;2022-09-27T05:00:32;10.60;99.90
7516;DHT22;3799;47.184;8.538;2022-09-27T05:03:18;10.60;99.90
7516;DHT22;3799;47.184;8.538;2022-09-27T05:06:04;10.80;99.90
7516;DHT22;3799;47.184;8.538;2022-09-27T05:08:50;10.40;99.90
7516;DHT22;3799;47.184;8.538;2022-09-27T05:11:35;10.70;99.90
7516;DHT22;3799;47.184;8.538;2022-09-27T05:14:22;10.70;99.90
7516;DHT22;3799;47.184;8.538;2022-09-27T05:17:08;10.60;99.90
7516;DHT22;3799;47.184;8.538;2022-09-27T05:19:54;10.90;99.90
7516;DHT22;3799;47.184;8.538;2022-09-27T05:22:40;10.70;99.90
7516;DHT22;3799;47.184;8.538;2022-09-27T05:25:26;11.20;99.90
7516;DHT22;3799;47.184;8.538;2022-09-27T05:28:12;11.60;99.90
7516;DHT22;3799;47.184;8.538;2022-09-27T05:30:58;11.30;99.90
7516;DHT22;3799;47.184;8.538;2022-09-27T05:33:43;11.90;99.90
7516;DHT22;3799;47.184;8.538;2022-09-27T05:36:29;12.00;99.90
7516;DHT22;3799;47.184;8.538;2022-09-27T05:39:15;11.70;99.90
7516;DHT22;3799;47.184;8.538;2022-09-27T05:42:01;11.60;99.90
7516;DHT22;3799;47.184;8.538;2022-09-27T05:44:49;11.90;99.90
7516;DHT22;3799;47.184;8.538;2022-09-27T05:47:35;11.80;99.90
7516;DHT22;3799;47.184;8.538;2022-09-27T05:50:21;11.90;99.90
7516;DHT22;3799;47.184;8.538;2022-09-27T05:53:08;12.00;99.90
7516;DHT22;3799;47.184;8.538;2022-09-27T05:55:54;12.20;99.90
7516;DHT22;3799;47.184;8.538;2022-09-27T05:58:39;11.80;99.90
7516;DHT22;3799;47.184;8.538;2022-09-27T06:01:25;12.00;99.90
7516;DHT22;3799;47.184;8.538;2022-09-27T06:04:12;12.50;99.90
7516;DHT22;3799;47.184;8.538;2022-09-27T06:06:58;12.30;99.90
7516;DHT22;3799;47.184;8.538;2022-09-27T06:09:43;12.50;99.90
7516;DHT22;3799;47.184;8.538;2022-09-27T06:12:29;12.40;99.90
7516;DHT22;3799;47.184;8.538;2022-09-27T06:15:15;12.10;99.90
7516;DHT22;3799;47.184;8.538;2022-09-27T06:18:05;12.10;99.90
7516;DHT22;3799;47.184;8.538;2022-09-27T06:20:51;12.20;99.90
7516;DHT22;3799;47.184;8.538;2022-09-27T06:23:37;12.20;99.90
7516;DHT22;3799;47.184;8.538;2022-09-27T06:26:23;12.00;99.90
7516;DHT22;3799;47.184;8.538;2022-09-27T06:29:11;11.80;99.90
7516;DHT22;3799;47.184;8.538;2022-09-27T06:31:57;12.00;99.90
7516;DHT22;3799;47.184;8.538;2022-09-27T06:34:43;12.00;99.90
7516;DHT22;3799;47.184;8.538;2022-09-27T06:37:29;12.00;99.90
7516;DHT22;3799;47.184;8.538;2022-09-27T06:40:15;12.10;99.90
7516;DHT22;3799;47.184;8.538;2022-09-27T06:43:02;12.20;99.90
7516;DHT22;3799;47.184;8.538;2022-09-27T06:45:48;12.10;99.90
7516;DHT22;3799;47.184;8.538;2022-09-27T06:48:35;12.10;99.90
7516;DHT22;3799;47.184;8.538;2022-09-27T06:51:23;12.10;99.90
7516;DHT22;3799;47.184;8.538;2022-09-27T06:54:08;12.00;99.90
7516;DHT22;3799;47.184;8.538;2022-09-27T06:56:54;12.10;99.90
7516;DHT22;3799;47.184;8.538;2022-09-27T06:59:40;12.10;99.90
7516;DHT22;3799;47.184;8.538;2022-09-27T07:02:45;12.00;99.90
7516;DHT22;3799;47.184;8.538;2022-09-27T07:05:31;12.20;99.90
7516;DHT22;3799;47.184;8.538;2022-09-27T07:08:16;12.30;99.90
7516;DHT22;3799;47.184;8.538;2022-09-27T07:11:04;12.00;99.90
7516;DHT22;3799;47.184;8.538;2022-09-27T07:13:50;11.70;99.90
7516;DHT22;3799;47.184;8.538;2022-09-27T07:16:36;11.40;99.90
7516;DHT22;3799;47.184;8.538;2022-09-27T07:19:22;11.50;99.90
7516;DHT22;3799;47.184;8.538;2022-09-27T07:22:08;11.40;99.90
7516;DHT22;3799;47.184;8.538;2022-09-27T07:24:54;11.20;99.90
7516;DHT22;3799;47.184;8.538;2022-09-27T07:27:40;11.30;99.90
7516;DHT22;3799;47.184;8.538;2022-09-27T07:30:26;11.70;99.90
7516;DHT22;3799;47.184;8.538;2022-09-27T07:33:12;11.40;99.90
7516;DHT22;3799;47.184;8.538;2022-09-27T07:35:58;11.40;99.90
7516;DHT22;3799;47.184;8.538;2022-09-27T07:38:44;11.00;99.90
7516;DHT22;3799;47.184;8.538;2022-09-27T07:41:30;10.80;99.90
7516;DHT22;3799;47.184;8.538;2022-09-27T07:44:16;10.70;99.90
7516;DHT22;3799;47.184;8.538;2022-09-27T07:47:05;10.50;99.90
7516;DHT22;3799;47.184;8.538;2022-09-27T07:49:53;10.30;99.90
7516;DHT22;3799;47.184;8.538;2022-09-27T07:52:41;10.40;99.90
7516;DHT22;3799;47.184;8.538;2022-09-27T07:58:03;10.10;99.90
7516;DHT22;3799;47.184;8.538;2022-09-27T08:00:32;10.20;99.90
7516;DHT22;3799;47.184;8.538;2022-09-27T08:02:57;10.10;99.90
7516;DHT22;3799;47.184;8.538;2022-09-27T08:05:23;10.10;99.90
7516;DHT22;3799;47.184;8.538;2022-09-27T08:07:54;10.50;99.90
7516;DHT22;3799;47.184;8.538;2022-09-27T08:10:23;10.30;99.90
7516;DHT22;3799;47.184;8.538;2022-09-27T08:12:55;10.40;99.90
7516;DHT22;3799;47.184;8.538;2022-09-27T08:15:20;10.50;99.90
7516;DHT22;3799;47.184;8.538;2022-09-27T08:17:46;10.70;99.90
7516;DHT22;3799;47.184;8.538;2022-09-27T08:20:12;10.80;99.90
7516;DHT22;3799;47.184;8.538;2022-09-27T08:22:42;10.80;99.90
7516;DHT22;3799;47.184;8.538;2022-09-27T08:25:08;10.90;99.90
7516;DHT22;3799;47.184;8.538;2022-09-27T08:27:38;10.80;99.90
7516;DHT22;3799;47.184;8.538;2022-09-27T08:30:04;11.00;99.90
7516;DHT22;3799;47.184;8.538;2022-09-27T08:32:30;11.20;99.90
7516;DHT22;3799;47.184;8.538;2022-09-27T08:34:58;11.00;99.90
7516;DHT22;3799;47.184;8.538;2022-09-27T08:37:26;11.10;99.90
7516;DHT22;3799;47.184;8.538;2022-09-27T08:39:52;11.40;99.90
7516;DHT22;3799;47.184;8.538;2022-09-27T08:52:35;11.00;99.90
7516;DHT22;3799;47.184;8.538;2022-09-27T08:55:03;11.20;99.90
7516;DHT22;3799;47.184;8.538;2022-09-27T08:57:30;11.20;99.90
7516;DHT22;3799;47.184;8.538;2022-09-27T09:00:11;11.10;99.90
7516;DHT22;3799;47.184;8.538;2022-09-27T09:02:37;11.50;99.90
7516;DHT22;3799;47.184;8.538;2022-09-27T09:05:07;11.50;99.90
7516;DHT22;3799;47.184;8.538;2022-09-27T09:13:08;12.20;99.90
7516;DHT22;3799;47.184;8.538;2022-09-27T09:15:46;12.30;99.90
7516;DHT22;3799;47.184;8.538;2022-09-27T09:26:27;12.40;99.90
7516;DHT22;3799;47.184;8.538;2022-09-27T09:34:14;12.60;99.90
7516;DHT22;3799;47.184;8.538;2022-09-27T09:39:18;12.80;99.90
7516;DHT22;3799;47.184;8.538;2022-09-27T09:44:25;12.90;99.90
7516;DHT22;3799;47.184;8.538;2022-09-27T09:46:52;13.10;99.90
7516;DHT22;3799;47.184;8.538;2022-09-27T09:49:27;13.10;99.90
7516;DHT22;3799;47.184;8.538;2022-09-27T09:51:55;13.30;99.90
7516;DHT22;3799;47.184;8.538;2022-09-27T09:54:25;13.30;99.90
7516;DHT22;3799;47.184;8.538;2022-09-27T09:56:55;13.30;99.90
7516;DHT22;3799;47.184;8.538;2022-09-27T09:59:25;13.30;99.90
7516;DHT22;3799;47.184;8.538;2022-09-27T10:01:52;13.40;99.90
7516;DHT22;3799;47.184;8.538;2022-09-27T10:04:22;13.00;99.90
7516;DHT22;3799;47.184;8.538;2022-09-27T10:06:48;13.00;99.10
7516;DHT22;3799;47.184;8.538;2022-09-27T10:09:14;12.90;96.70
7516;DHT22;3799;47.184;8.538;2022-09-27T10:11:42;12.80;96.40
7516;DHT22;3799;47.184;8.538;2022-09-27T10:14:13;13.00;95.80
7516;DHT22;3799;47.184;8.538;2022-09-27T10:16:40;12.90;95.00
7516;DHT22;3799;47.184;8.538;2022-09-27T10:19:08;13.00;94.90
7516;DHT22;3799;47.184;8.538;2022-09-27T10:21:34;13.10;95.40
7516;DHT22;3799;47.184;8.538;2022-09-27T10:24:10;13.00;94.70
7516;DHT22;3799;47.184;8.538;2022-09-27T10:26:36;12.90;94.40
7516;DHT22;3799;47.184;8.538;2022-09-27T10:31:44;13.20;93.40
7516;DHT22;3799;47.184;8.538;2022-09-27T10:34:22;13.60;93.60
7516;DHT22;3799;47.184;8.538;2022-09-27T10:39:27;13.60;92.60
7516;DHT22;3799;47.184;8.538;2022-09-27T10:41:52;13.90;92.30
7516;DHT22;3799;47.184;8.538;2022-09-27T10:44:22;13.70;92.10
7516;DHT22;3799;47.184;8.538;2022-09-27T10:46:50;13.60;91.10
7516;DHT22;3799;47.184;8.538;2022-09-27T10:51:42;14.00;90.60
7516;DHT22;3799;47.184;8.538;2022-09-27T10:54:18;13.80;89.70
7516;DHT22;3799;47.184;8.538;2022-09-27T10:56:44;13.90;90.80
7516;DHT22;3799;47.184;8.538;2022-09-27T10:59:18;13.60;90.80
7516;DHT22;3799;47.184;8.538;2022-09-27T11:01:49;13.70;90.60
7516;DHT22;3799;47.184;8.538;2022-09-27T11:04:17;13.60;90.60
7516;DHT22;3799;47.184;8.538;2022-09-27T11:06:46;13.50;90.20
7516;DHT22;3799;47.184;8.538;2022-09-27T11:09:22;13.50;94.00
7516;DHT22;3799;47.184;8.538;2022-09-27T11:12:04;13.00;94.90
7516;DHT22;3799;47.184;8.538;2022-09-27T11:14:32;12.70;98.20
7516;DHT22;3799;47.184;8.538;2022-09-27T11:17:09;12.30;98.60
7516;DHT22;3799;47.184;8.538;2022-09-27T11:19:44;12.10;97.70
7516;DHT22;3799;47.184;8.538;2022-09-27T11:24:56;11.90;99.00
7516;DHT22;3799;47.184;8.538;2022-09-27T11:35:21;12.20;99.80
7516;DHT22;3799;47.184;8.538;2022-09-27T11:45:54;12.40;97.80
7516;DHT22;3799;47.184;8.538;2022-09-27T11:51:02;12.10;97.80
7516;DHT22;3799;47.184;8.538;2022-09-27T11:53:34;11.90;97.70
7516;DHT22;3799;47.184;8.538;2022-09-27T11:56:17;12.00;96.50
7516;DHT22;3799;47.184;8.538;2022-09-27T12:03:59;12.10;95.90
7516;DHT22;3799;47.184;8.538;2022-09-27T12:14:03;12.60;93.70
7516;DHT22;3799;47.184;8.538;2022-09-27T12:16:30;12.60;94.00
7516;DHT22;3799;47.184;8.538;2022-09-27T12:18:57;12.70;94.00
7516;DHT22;3799;47.184;8.538;2022-09-27T12:21:23;12.70;94.10
7516;DHT22;3799;47.184;8.538;2022-09-27T12:23:51;12.90;93.80
7516;DHT22;3799;47.184;8.538;2022-09-27T12:26:19;12.80;93.30
7516;DHT22;3799;47.184;8.538;2022-09-27T12:31:29;13.10;93.60
7516;DHT22;3799;47.184;8.538;2022-09-27T12:36:24;13.00;93.70
7516;DHT22;3799;47.184;8.538;2022-09-27T12:38:55;13.10;93.80
7516;DHT22;3799;47.184;8.538;2022-09-27T12:41:23;13.10;94.20
7516;DHT22;3799;47.184;8.538;2022-09-27T12:43:49;13.30;94.40
7516;DHT22;3799;47.184;8.538;2022-09-27T12:49:04;13.10;94.60
7516;DHT22;3799;47.184;8.538;2022-09-27T12:51:48;13.10;94.80
7516;DHT22;3799;47.184;8.538;2022-09-27T12:57:05;13.30;95.20
7516;DHT22;3799;47.184;8.538;2022-09-27T13:12:23;13.10;95.00
7516;DHT22;3799;47.184;8.538;2022-09-27T13:22:52;13.20;95.00
7516;DHT22;3799;47.184;8.538;2022-09-27T13:26:00;13.20;95.40
7516;DHT22;3799;47.184;8.538;2022-09-27T13:30:52;12.70;96.30
7516;DHT22;3799;47.184;8.538;2022-09-27T13:38:28;12.10;99.00
7516;DHT22;3799;47.184;8.538;2022-09-27T13:41:01;12.00;98.30
7516;DHT22;3799;47.184;8.538;2022-09-27T13:43:42;11.70;99.60
7516;DHT22;3799;47.184;8.538;2022-09-27T13:46:16;11.90;99.90
7516;DHT22;3799;47.184;8.538;2022-09-27T13:49:04;12.10;99.90
7516;DHT22;3799;47.184;8.538;2022-09-27T13:51:42;12.00;99.90
7516;DHT22;3799;47.184;8.538;2022-09-27T13:56:56;12.50;99.90
7516;DHT22;3799;47.184;8.538;2022-09-27T13:59:23;12.70;99.90
7516;DHT22;3799;47.184;8.538;2022-09-27T14:01:51;12.60;99.90
7516;DHT22;3799;47.184;8.538;2022-09-27T14:04:27;13.00;99.90
7516;DHT22;3799;47.184;8.538;2022-09-27T14:06:54;12.90;99.90
7516;DHT22;3799;47.184;8.538;2022-09-27T14:09:25;12.80;99.90
7516;DHT22;3799;47.184;8.538;2022-09-27T14:11:53;13.00;99.90
7516;DHT22;3799;47.184;8.538;2022-09-27T14:14:23;13.10;99.90
7516;DHT22;3799;47.184;8.538;2022-09-27T14:16:50;13.30;99.90
7516;DHT22;3799;47.184;8.538;2022-09-27T14:19:18;13.20;99.90
7516;DHT22;3799;47.184;8.538;2022-09-27T14:21:44;13.20;99.20
7516;DHT22;3799;47.184;8.538;2022-09-27T14:27:03;13.60;99.90
7516;DHT22;3799;47.184;8.538;2022-09-27T14:29:30;13.50;99.90
7516;DHT22;3799;47.184;8.538;2022-09-27T14:32:03;14.00;99.90
7516;DHT22;3799;47.184;8.538;2022-09-27T14:34:29;13.90;99.10
7516;DHT22;3799;47.184;8.538;2022-09-27T14:36:54;14.10;98.20
7516;DHT22;3799;47.184;8.538;2022-09-27T14:39:39;14.20;96.60
7516;DHT22;3799;47.184;8.538;2022-09-27T14:42:18;14.00;96.40
7516;DHT22;3799;47.184;8.538;2022-09-27T14:44:48;13.90;96.90
7516;DHT22;3799;47.184;8.538;2022-09-27T14:52:20;13.90;95.40
7516;DHT22;3799;47.184;8.538;2022-09-27T14:54:59;13.60;96.10
7516;DHT22;3799;47.184;8.538;2022-09-27T14:57:26;13.90;96.00
7516;DHT22;3799;47.184;8.538;2022-09-27T14:59:53;13.70;95.80
7516;DHT22;3799;47.184;8.538;2022-09-27T15:02:22;13.50;95.10
7516;DHT22;3799;47.184;8.538;2022-09-27T15:04:51;13.40;95.90
7516;DHT22;3799;47.184;8.538;2022-09-27T15:07:18;13.40;96.30
7516;DHT22;3799;47.184;8.538;2022-09-27T15:09:44;13.40;97.00
7516;DHT22;3799;47.184;8.538;2022-09-27T15:12:14;13.20;97.00
7516;DHT22;3799;47.184;8.538;2022-09-27T15:14:48;13.30;97.20
7516;DHT22;3799;47.184;8.538;2022-09-27T15:17:15;13.60;95.70
7516;DHT22;3799;47.184;8.538;2022-09-27T15:20:03;13.70;94.80
7516;DHT22;3799;47.184;8.538;2022-09-27T15:22:43;13.90;94.30
7516;DHT22;3799;47.184;8.538;2022-09-27T15:27:45;13.70;94.30
7516;DHT22;3799;47.184;8.538;2022-09-27T15:30:15;13.90;95.00
7516;DHT22;3799;47.184;8.538;2022-09-27T15:32:46;13.80;94.90
7516;DHT22;3799;47.184;8.538;2022-09-27T15:35:14;13.80;94.50
7516;DHT22;3799;47.184;8.538;2022-09-27T15:37:43;13.70;93.50
7516;DHT22;3799;47.184;8.538;2022-09-27T15:42:54;13.70;91.90
7516;DHT22;3799;47.184;8.538;2022-09-27T15:45:34;13.70;91.40
7516;DHT22;3799;47.184;8.538;2022-09-27T15:48:14;13.90;92.40
7516;DHT22;3799;47.184;8.538;2022-09-27T15:50:40;13.80;92.80
7516;DHT22;3799;47.184;8.538;2022-09-27T15:53:07;13.70;92.50
7516;DHT22;3799;47.184;8.538;2022-09-27T15:55:35;13.60;92.30
7516;DHT22;3799;47.184;8.538;2022-09-27T15:58:04;13.60;92.10
7516;DHT22;3799;47.184;8.538;2022-09-27T16:00:33;13.60;91.90
7516;DHT22;3799;47.184;8.538;2022-09-27T16:03:00;13.50;91.90
7516;DHT22;3799;47.184;8.538;2022-09-27T16:05:26;13.50;92.00
7516;DHT22;3799;47.184;8.538;2022-09-27T16:07:54;13.20;91.60
7516;DHT22;3799;47.184;8.538;2022-09-27T16:10:21;13.50;92.40
7516;DHT22;3799;47.184;8.538;2022-09-27T16:12:49;13.20;92.70
7516;DHT22;3799;47.184;8.538;2022-09-27T16:15:15;13.20;92.60
7516;DHT22;3799;47.184;8.538;2022-09-27T16:17:41;13.30;93.40
7516;DHT22;3799;47.184;8.538;2022-09-27T16:22:40;13.10;94.30
7516;DHT22;3799;47.184;8.538;2022-09-27T16:25:06;13.00;95.10
7516;DHT22;3799;47.184;8.538;2022-09-27T16:27:32;13.00;95.80
7516;DHT22;3799;47.184;8.538;2022-09-27T16:29:57;12.70;96.00
7516;DHT22;3799;47.184;8.538;2022-09-27T16:32:23;12.90;95.70
7516;DHT22;3799;47.184;8.538;2022-09-27T16:34:50;12.70;95.70
7516;DHT22;3799;47.184;8.538;2022-09-27T16:37:16;12.60;95.50
7516;DHT22;3799;47.184;8.538;2022-09-27T16:39:41;12.60;95.80
7516;DHT22;3799;47.184;8.538;2022-09-27T16:42:07;12.60;95.70
7516;DHT22;3799;47.184;8.538;2022-09-27T16:44:34;12.60;96.00
7516;DHT22;3799;47.184;8.538;2022-09-27T16:47:01;12.70;98.20
7516;DHT22;3799;47.184;8.538;2022-09-27T16:49:26;12.60;99.10
7516;DHT22;3799;47.184;8.538;2022-09-27T16:52:12;12.20;99.90
7516;DHT22;3799;47.184;8.538;2022-09-27T16:54:38;12.20;99.90
7516;DHT22;3799;47.184;8.538;2022-09-27T16:57:04;12.00;99.90
7516;DHT22;3799;47.184;8.538;2022-09-27T16:59:30;12.20;99.90
7516;DHT22;3799;47.184;8.538;2022-09-27T17:01:57;12.20;99.90
7516;DHT22;3799;47.184;8.538;2022-09-27T17:04:26;11.80;99.90
7516;DHT22;3799;47.184;8.538;2022-09-27T17:06:53;12.00;99.90
7516;DHT22;3799;47.184;8.538;2022-09-27T17:09:22;12.00;99.90
7516;DHT22;3799;47.184;8.538;2022-09-27T17:11:48;11.90;99.90
7516;DHT22;3799;47.184;8.538;2022-09-27T17:14:14;11.80;99.90
7516;DHT22;3799;47.184;8.538;2022-09-27T17:16:45;11.60;99.90
7516;DHT22;3799;47.184;8.538;2022-09-27T17:19:13;11.80;99.90
7516;DHT22;3799;47.184;8.538;2022-09-27T17:21:39;11.70;99.90
7516;DHT22;3799;47.184;8.538;2022-09-27T17:24:10;11.80;99.90
7516;DHT22;3799;47.184;8.538;2022-09-27T17:26:36;11.60;99.90
7516;DHT22;3799;47.184;8.538;2022-09-27T17:29:02;11.60;99.90
7516;DHT22;3799;47.184;8.538;2022-09-27T17:31:29;11.50;99.90
7516;DHT22;3799;47.184;8.538;2022-09-27T17:33:59;11.70;99.90
7516;DHT22;3799;47.184;8.538;2022-09-27T17:36:26;11.30;99.90
7516;DHT22;3799;47.184;8.538;2022-09-27T17:38:53;11.60;99.90
7516;DHT22;3799;47.184;8.538;2022-09-27T17:41:22;11.70;99.90
7516;DHT22;3799;47.184;8.538;2022-09-27T17:43:55;11.40;99.90
7516;DHT22;3799;47.184;8.538;2022-09-27T17:46:23;11.30;99.90
7516;DHT22;3799;47.184;8.538;2022-09-27T17:48:49;11.40;99.90
7516;DHT22;3799;47.184;8.538;2022-09-27T17:51:35;11.50;99.90
7516;DHT22;3799;47.184;8.538;2022-09-27T17:54:01;11.30;99.90
7516;DHT22;3799;47.184;8.538;2022-09-27T17:56:27;11.40;99.90
7516;DHT22;3799;47.184;8.538;2022-09-27T17:58:53;11.50;99.90
7516;DHT22;3799;47.184;8.538;2022-09-27T18:01:20;11.20;99.90
7516;DHT22;3799;47.184;8.538;2022-09-27T18:03:46;11.40;99.90
7516;DHT22;3799;47.184;8.538;2022-09-27T18:06:13;11.60;99.90
7516;DHT22;3799;47.184;8.538;2022-09-27T18:08:40;11.40;99.90
7516;DHT22;3799;47.184;8.538;2022-09-27T18:11:07;11.30;99.90
7516;DHT22;3799;47.184;8.538;2022-09-27T18:13:33;11.40;99.90
7516;DHT22;3799;47.184;8.538;2022-09-27T18:16:08;11.30;99.90
7516;DHT22;3799;47.184;8.538;2022-09-27T18:18:35;11.30;99.90
7516;DHT22;3799;47.184;8.538;2022-09-27T18:21:13;11.50;99.90
7516;DHT22;3799;47.184;8.538;2022-09-27T18:23:40;11.20;99.90
7516;DHT22;3799;47.184;8.538;2022-09-27T18:26:06;11.20;99.90
7516;DHT22;3799;47.184;8.538;2022-09-27T18:28:35;11.30;99.90
7516;DHT22;3799;47.184;8.538;2022-09-27T18:31:03;11.20;99.90
7516;DHT22;3799;47.184;8.538;2022-09-27T18:33:29;11.20;99.90
7516;DHT22;3799;47.184;8.538;2022-09-27T18:35:55;11.10;99.90
7516;DHT22;3799;47.184;8.538;2022-09-27T18:38:21;11.00;99.90
7516;DHT22;3799;47.184;8.538;2022-09-27T18:40:46;11.10;99.90
7516;DHT22;3799;47.184;8.538;2022-09-27T18:43:12;10.90;99.90
7516;DHT22;3799;47.184;8.538;2022-09-27T18:45:37;11.00;99.90
7516;DHT22;3799;47.184;8.538;2022-09-27T18:48:04;11.30;99.90
7516;DHT22;3799;47.184;8.538;2022-09-27T18:50:33;11.10;99.90
7516;DHT22;3799;47.184;8.538;2022-09-27T18:52:59;11.20;99.90
7516;DHT22;3799;47.184;8.538;2022-09-27T18:55:24;10.90;99.90
7516;DHT22;3799;47.184;8.538;2022-09-27T18:57:50;11.00;99.90
7516;DHT22;3799;47.184;8.538;2022-09-27T19:00:16;11.00;99.90
7516;DHT22;3799;47.184;8.538;2022-09-27T19:02:41;11.00;99.90
7516;DHT22;3799;47.184;8.538;2022-09-27T19:05:07;11.00;99.90
7516;DHT22;3799;47.184;8.538;2022-09-27T19:07:33;11.10;99.90
7516;DHT22;3799;47.184;8.538;2022-09-27T19:09:59;11.00;99.90
7516;DHT22;3799;47.184;8.538;2022-09-27T19:12:26;10.90;99.90
7516;DHT22;3799;47.184;8.538;2022-09-27T19:14:51;10.80;99.90
7516;DHT22;3799;47.184;8.538;2022-09-27T19:17:17;11.10;99.90
7516;DHT22;3799;47.184;8.538;2022-09-27T19:19:42;11.00;99.90
7516;DHT22;3799;47.184;8.538;2022-09-27T19:22:10;11.00;99.90
7516;DHT22;3799;47.184;8.538;2022-09-27T19:24:36;10.90;99.90
7516;DHT22;3799;47.184;8.538;2022-09-27T19:27:05;10.90;99.90
7516;DHT22;3799;47.184;8.538;2022-09-27T19:29:30;10.80;99.90
7516;DHT22;3799;47.184;8.538;2022-09-27T19:31:56;11.00;99.90
7516;DHT22;3799;47.184;8.538;2022-09-27T19:34:25;10.90;99.90
7516;DHT22;3799;47.184;8.538;2022-09-27T19:36:50;10.60;99.90
7516;DHT22;3799;47.184;8.538;2022-09-27T19:39:16;10.90;99.90
7516;DHT22;3799;47.184;8.538;2022-09-27T19:41:41;10.80;99.90
7516;DHT22;3799;47.184;8.538;2022-09-27T19:44:07;10.80;99.90
7516;DHT22;3799;47.184;8.538;2022-09-27T19:46:33;10.80;99.90
7516;DHT22;3799;47.184;8.538;2022-09-27T19:48:59;11.00;99.90
7516;DHT22;3799;47.184;8.538;2022-09-27T19:51:25;11.10;99.90
7516;DHT22;3799;47.184;8.538;2022-09-27T19:53:51;10.80;99.90
7516;DHT22;3799;47.184;8.538;2022-09-27T19:56:17;10.80;99.90
7516;DHT22;3799;47.184;8.538;2022-09-27T19:58:43;10.80;99.90